createdAt,value
2019-02-28T00:00:37.234Z,100649.67
2019-02-28T00:03:11.369Z,100644.20
2019-02-28T00:05:44.204Z,100636.89
2019-02-28T00:08:16.918Z,100637.34
2019-02-28T00:10:49.748Z,100637.63
2019-02-28T00:13:22.604Z,100626.34
2019-02-28T00:15:55.466Z,100628.09
2019-02-28T00:18:28.302Z,100617.58
2019-02-28T00:21:06.062Z,100612.38
2019-02-28T00:23:36.120Z,100600.97
2019-02-28T00:26:11.445Z,100597.05
2019-02-28T00:28:43.688Z,100593.50
2019-02-28T00:31:16.553Z,100591.27
2019-02-28T00:33:49.392Z,100589.94
2019-02-28T00:36:22.246Z,100581.93
2019-02-28T00:38:55.110Z,100582.41
2019-02-28T00:41:28.018Z,100569.37
2019-02-28T00:44:00.774Z,100562.96
2019-02-28T00:46:33.595Z,100556.09
2019-02-28T00:49:06.364Z,100555.27
2019-02-28T00:51:39.116Z,100549.72
2019-02-28T00:54:12.002Z,100550.64
2019-02-28T00:56:44.823Z,100555.05
2019-02-28T00:59:17.642Z,100546.52
2019-02-28T01:01:50.427Z,100537.56
2019-02-28T01:04:23.248Z,100538.58
2019-02-28T01:06:55.986Z,100526.13
2019-02-28T01:09:30.238Z,100520.54
2019-02-28T01:12:03.271Z,100516.09
2019-02-28T01:14:36.672Z,100506.25
2019-02-28T01:17:09.564Z,100501.89
2019-02-28T01:19:42.424Z,100496.75
2019-02-28T01:22:15.229Z,100491.09
2019-02-28T01:24:48.079Z,100487.70
2019-02-28T01:27:21.760Z,100479.09
2019-02-28T01:29:54.694Z,100479.16
2019-02-28T01:32:27.447Z,100482.59
2019-02-28T01:35:00.276Z,100479.16
2019-02-28T01:37:33.150Z,100466.75
2019-02-28T01:40:06.134Z,100458.28
2019-02-28T01:42:38.885Z,100451.90
2019-02-28T01:45:11.669Z,100448.88
2019-02-28T01:47:44.513Z,100454.28
2019-02-28T01:50:17.337Z,100445.39
2019-02-28T01:52:50.073Z,100434.64
2019-02-28T01:55:22.995Z,100436.52
2019-02-28T01:57:55.782Z,100423.95
2019-02-28T02:00:31.522Z,100416.14
2019-02-28T02:03:04.303Z,100407.95
2019-02-28T02:05:37.011Z,100411.14
2019-02-28T02:08:09.859Z,100409.40
2019-02-28T02:10:42.706Z,100404.92
2019-02-28T02:13:15.455Z,100387.25
2019-02-28T02:15:51.110Z,100374.83
2019-02-28T02:18:22.957Z,100370.10
2019-02-28T02:20:57.396Z,100359.89
2019-02-28T02:23:30.255Z,100358.41
2019-02-28T02:26:03.093Z,100350.53
2019-02-28T02:28:35.923Z,100338.30
2019-02-28T02:31:09.233Z,100336.81
2019-02-28T02:33:51.120Z,100334.21
2019-02-28T02:36:19.592Z,100327.04
2019-02-28T02:38:52.508Z,100329.98
2019-02-28T02:41:25.373Z,100338.25
2019-02-28T02:43:58.275Z,100334.34
2019-02-28T02:46:31.137Z,100318.89
2019-02-28T02:49:03.913Z,100324.34
2019-02-28T02:51:36.738Z,100322.73
2019-02-28T02:54:09.606Z,100318.42
2019-02-28T02:56:42.467Z,100311.98
2019-02-28T02:59:15.280Z,100313.94
2019-02-28T03:01:48.030Z,100315.83
2019-02-28T03:04:22.999Z,100306.44
2019-02-28T03:06:55.244Z,100310.01
2019-02-28T03:09:28.089Z,100303.94
2019-02-28T03:12:00.810Z,100307.20
2019-02-28T03:14:33.715Z,100303.81
2019-02-28T03:17:11.483Z,100296.14
2019-02-28T03:19:42.033Z,100282.98
2019-02-28T03:22:14.953Z,100282.20
2019-02-28T03:24:51.159Z,100272.88
2019-02-28T03:27:22.481Z,100278.60
2019-02-28T03:29:55.256Z,100272.67
2019-02-28T03:32:39.262Z,100272.85
2019-02-28T03:35:02.484Z,100259.62
2019-02-28T03:37:35.345Z,100254.56
2019-02-28T03:40:08.969Z,100249.88
2019-02-28T03:42:41.980Z,100238.68
2019-02-28T03:45:15.295Z,100238.20
2019-02-28T03:47:48.489Z,100236.90
2019-02-28T03:50:22.297Z,100236.14
2019-02-28T03:52:56.038Z,100228.44
2019-02-28T03:55:29.037Z,100220.98
2019-02-28T03:58:05.412Z,100220.98
2019-02-28T04:00:36.307Z,100211.16
2019-02-28T04:03:09.347Z,100210.81
2019-02-28T04:05:42.106Z,100199.55
2019-02-28T04:08:14.940Z,100195.20
2019-02-28T04:10:47.716Z,100189.14
2019-02-28T04:13:20.548Z,100187.47
2019-02-28T04:16:07.663Z,100180.97
2019-02-28T04:18:27.829Z,100176.28
2019-02-28T04:21:00.648Z,100181.03
2019-02-28T04:23:36.095Z,100166.77
2019-02-28T04:26:08.069Z,100161.90
2019-02-28T04:28:42.389Z,100157.14
2019-02-28T04:31:19.142Z,100166.66
2019-02-28T04:33:49.817Z,100162.34
2019-02-28T04:36:22.682Z,100158.45
2019-02-28T04:38:55.538Z,100139.00
2019-02-28T04:41:32.392Z,100143.35
2019-02-28T04:44:02.795Z,100144.62
2019-02-28T04:46:35.563Z,100139.00
2019-02-28T04:49:08.407Z,100128.98
2019-02-28T04:51:41.341Z,100123.96
2019-02-28T04:54:14.090Z,100119.23
2019-02-28T04:56:47.015Z,100115.37
2019-02-28T04:59:19.869Z,100102.92
2019-02-28T05:01:52.742Z,100094.84
2019-02-28T05:04:27.053Z,100093.20
2019-02-28T05:06:59.920Z,100082.53
2019-02-28T05:09:32.739Z,100079.66
2019-02-28T05:12:06.021Z,100064.78
2019-02-28T05:14:38.996Z,100062.65
2019-02-28T05:17:11.769Z,100055.90
2019-02-28T05:19:44.525Z,100060.92
2019-02-28T05:22:17.312Z,100053.12
2019-02-28T05:24:50.340Z,100059.28
2019-02-28T05:27:24.428Z,100059.21
2019-02-28T05:29:58.767Z,100057.47
2019-02-28T05:32:32.177Z,100049.39
2019-02-28T05:35:06.540Z,100047.98
2019-02-28T05:37:39.566Z,100044.13
2019-02-28T05:40:13.398Z,100037.27
2019-02-28T05:42:47.432Z,100040.25
2019-02-28T05:45:20.432Z,100032.19
2019-02-28T05:47:53.482Z,100032.63
2019-02-28T05:50:26.309Z,100033.45
2019-02-28T05:52:59.201Z,100033.29
2019-02-28T05:55:32.555Z,100030.53
2019-02-28T05:58:05.677Z,100022.30
2019-02-28T06:00:38.632Z,100024.38
2019-02-28T06:03:11.465Z,100023.75
2019-02-28T06:05:46.399Z,100012.81
2019-02-28T06:08:19.006Z,99997.31
2019-02-28T06:10:52.005Z,100002.06
2019-02-28T06:13:24.947Z,100007.77
2019-02-28T06:15:57.624Z,100001.46
2019-02-28T06:18:33.376Z,99999.98
2019-02-28T06:21:05.077Z,100009.53
2019-02-28T06:23:40.746Z,100009.36
2019-02-28T06:26:12.415Z,100009.31
2019-02-28T06:28:45.228Z,100001.36
2019-02-28T06:31:18.072Z,100003.88
2019-02-28T06:33:51.025Z,99998.30
2019-02-28T06:36:25.732Z,100003.54
2019-02-28T06:38:58.303Z,100003.89
2019-02-28T06:41:31.115Z,100010.05
2019-02-28T06:44:04.118Z,100009.19
2019-02-28T06:46:45.879Z,100009.78
2019-02-28T06:49:18.798Z,100017.02
2019-02-28T06:51:52.003Z,100017.48
2019-02-28T06:54:24.862Z,100014.06
2019-02-28T06:56:57.626Z,100013.53
2019-02-28T06:59:31.751Z,99996.53
2019-02-28T07:02:04.681Z,99980.67
2019-02-28T07:04:37.465Z,99980.91
2019-02-28T07:07:13.507Z,99976.02
2019-02-28T07:09:44.760Z,99988.56
2019-02-28T07:12:17.543Z,99996.40
2019-02-28T07:14:50.335Z,99990.04
2019-02-28T07:17:24.800Z,99989.02
2019-02-28T07:20:01.300Z,99983.58
2019-02-28T07:22:32.080Z,99978.01
2019-02-28T07:25:05.394Z,99984.31
2019-02-28T07:27:38.140Z,99980.84
2019-02-28T07:30:17.797Z,99978.45
2019-02-28T07:32:49.488Z,99980.94
2019-02-28T07:35:22.254Z,99991.52
2019-02-28T07:37:54.980Z,99994.47
2019-02-28T07:40:27.885Z,99981.27
2019-02-28T07:43:00.581Z,99976.77
2019-02-28T07:45:34.148Z,99968.31
2019-02-28T07:48:07.075Z,99971.47
2019-02-28T07:50:39.842Z,99978.34
2019-02-28T07:53:12.641Z,99982.66
2019-02-28T07:55:45.373Z,99986.21
2019-02-28T07:58:18.261Z,99981.10
2019-02-28T08:00:52.628Z,99995.63
2019-02-28T08:03:25.878Z,99993.05
2019-02-28T08:06:04.477Z,99997.66
2019-02-28T08:08:33.378Z,100002.36
2019-02-28T08:11:06.578Z,100006.14
2019-02-28T08:13:39.415Z,99994.89
2019-02-28T08:16:12.178Z,100002.86
2019-02-28T08:18:45.035Z,100006.45
2019-02-28T08:21:18.857Z,99995.63
2019-02-28T08:23:51.894Z,99986.10
2019-02-28T08:26:24.754Z,99972.38
2019-02-28T08:28:57.587Z,99969.59
2019-02-28T08:31:32.029Z,99990.34
2019-02-28T08:34:05.916Z,99984.08
2019-02-28T08:36:38.713Z,99984.08
2019-02-28T08:39:16.124Z,99982.06
2019-02-28T08:41:49.688Z,99973.23
2019-02-28T08:44:23.977Z,99972.39
2019-02-28T08:46:57.027Z,99980.94
2019-02-28T08:49:29.964Z,99984.39
2019-02-28T08:52:05.578Z,99996.48
2019-02-28T08:54:37.376Z,99991.98
2019-02-28T08:57:10.088Z,99996.72
2019-02-28T08:59:42.893Z,99979.19
2019-02-28T09:02:18.180Z,99979.19
2019-02-28T09:04:51.057Z,99968.77
2019-02-28T09:07:25.041Z,99980.30
2019-02-28T09:09:57.798Z,99973.50
2019-02-28T09:12:33.305Z,99962.89
2019-02-28T09:15:05.897Z,99970.55
2019-02-28T09:17:38.845Z,99958.70
2019-02-28T09:20:12.091Z,99972.73
2019-02-28T09:22:44.945Z,99964.78
2019-02-28T09:25:21.378Z,99987.80
2019-02-28T09:27:52.758Z,99995.61
2019-02-28T09:30:32.428Z,99985.54
2019-02-28T09:33:05.419Z,99990.67
2019-02-28T09:35:38.134Z,99995.19
2019-02-28T09:38:14.239Z,99984.39
2019-02-28T09:40:49.103Z,99992.15
2019-02-28T09:43:24.189Z,99985.59
2019-02-28T09:45:59.963Z,99988.63
2019-02-28T09:48:33.984Z,99980.02
2019-02-28T09:51:07.563Z,99985.36
2019-02-28T09:53:40.290Z,99986.07
2019-02-28T09:56:13.056Z,99986.91
2019-02-28T09:58:45.862Z,99976.92
2019-02-28T10:01:21.297Z,99972.48
2019-02-28T10:03:55.330Z,99979.28
2019-02-28T10:06:27.704Z,99986.33
2019-02-28T10:09:00.444Z,99981.89
2019-02-28T10:11:34.776Z,99988.06
2019-02-28T10:14:08.577Z,99996.23
2019-02-28T10:16:41.393Z,99993.09
2019-02-28T10:19:14.163Z,99992.19
2019-02-28T10:21:51.833Z,99985.61
2019-02-28T10:24:21.662Z,99990.48
2019-02-28T10:26:54.445Z,99987.27
2019-02-28T10:29:27.338Z,99996.48
2019-02-28T10:32:00.194Z,99995.66
2019-02-28T10:34:35.408Z,99999.02
2019-02-28T10:37:08.370Z,99993.16
2019-02-28T10:39:43.183Z,100000.27
2019-02-28T10:42:16.596Z,99999.33
2019-02-28T10:44:49.531Z,100007.86
2019-02-28T10:47:27.890Z,100016.41
2019-02-28T10:49:58.293Z,100011.42
2019-02-28T10:52:31.592Z,99999.10
2019-02-28T10:55:04.415Z,100012.76
2019-02-28T10:57:40.128Z,100010.74
2019-02-28T11:00:26.259Z,100013.09
2019-02-28T11:03:00.428Z,100019.06
2019-02-28T11:05:34.845Z,100017.61
2019-02-28T11:08:14.815Z,100008.78
2019-02-28T11:10:50.410Z,100012.84
2019-02-28T11:13:24.881Z,100016.05
2019-02-28T11:15:57.926Z,100025.39
2019-02-28T11:18:31.735Z,100017.02
2019-02-28T11:21:10.223Z,100018.77
2019-02-28T11:23:46.529Z,100029.27
2019-02-28T11:26:19.974Z,100036.55
2019-02-28T11:28:52.823Z,100040.52
2019-02-28T11:31:25.898Z,100025.59
2019-02-28T11:33:59.048Z,100029.70
2019-02-28T11:36:34.143Z,100026.50
2019-02-28T11:39:09.001Z,100025.88
2019-02-28T11:41:42.203Z,100033.87
2019-02-28T11:44:15.066Z,100046.98
2019-02-28T11:46:49.040Z,100036.77
2019-02-28T11:49:22.170Z,100041.23
2019-02-28T11:51:54.898Z,100036.30
2019-02-28T11:54:29.596Z,100027.70
2019-02-28T11:57:06.568Z,100032.73
2019-02-28T11:59:38.180Z,100024.77
2019-02-28T12:02:11.056Z,100028.52
2019-02-28T12:04:44.223Z,100019.50
2019-02-28T12:07:17.262Z,100019.59
2019-02-28T12:09:51.453Z,100010.17
2019-02-28T12:12:26.334Z,100014.94
2019-02-28T12:15:02.548Z,100013.94
2019-02-28T12:17:34.257Z,100010.96
2019-02-28T12:20:09.287Z,100017.42
2019-02-28T12:22:43.514Z,100012.27
2019-02-28T12:25:19.100Z,99998.38
2019-02-28T12:27:52.145Z,99996.82
2019-02-28T12:30:27.391Z,100007.45
2019-02-28T12:33:00.349Z,100016.48
2019-02-28T12:35:39.223Z,100018.04
2019-02-28T12:38:08.196Z,100009.59
2019-02-28T12:40:42.464Z,100017.98
2019-02-28T12:43:16.897Z,100009.95
2019-02-28T12:45:49.799Z,100026.86
2019-02-28T12:48:22.930Z,100030.61
2019-02-28T12:50:56.016Z,100023.96
2019-02-28T12:53:28.826Z,100025.58
2019-02-28T12:56:01.810Z,100025.58
2019-02-28T12:58:38.724Z,100027.84
2019-02-28T13:01:09.627Z,100019.47
2019-02-28T13:03:45.788Z,100025.56
2019-02-28T13:06:23.425Z,100027.03
2019-02-28T13:08:53.542Z,100018.98
2019-02-28T13:11:26.644Z,100027.36
2019-02-28T13:14:06.581Z,100025.00
2019-02-28T13:16:40.039Z,100018.36
2019-02-28T13:19:29.145Z,100015.34
2019-02-28T13:22:04.087Z,100019.79
2019-02-28T13:24:38.477Z,100008.81
2019-02-28T13:27:13.830Z,100003.68
2019-02-28T13:29:59.948Z,99996.94
2019-02-28T13:32:33.835Z,100005.48
2019-02-28T13:35:09.362Z,100005.34
2019-02-28T13:37:44.759Z,100004.59
2019-02-28T13:40:17.526Z,100013.95
2019-02-28T13:42:50.706Z,100020.91
2019-02-28T13:45:24.755Z,100018.81
2019-02-28T13:47:57.692Z,100026.65
2019-02-28T13:50:32.527Z,100026.48
2019-02-28T13:53:17.263Z,100037.21
2019-02-28T13:55:43.942Z,100034.59
2019-02-28T13:58:17.746Z,100034.83
2019-02-28T14:00:56.170Z,100039.84
2019-02-28T14:03:31.073Z,100044.42
2019-02-28T14:06:04.302Z,100050.64
2019-02-28T14:08:37.210Z,100039.03
2019-02-28T14:11:10.970Z,100044.16
2019-02-28T14:13:44.000Z,100044.74
2019-02-28T14:16:16.997Z,100052.88
2019-02-28T14:18:49.897Z,100054.84
2019-02-28T14:21:23.187Z,100057.51
2019-02-28T14:23:56.801Z,100068.14
2019-02-28T14:26:31.130Z,100056.50
2019-02-28T14:29:07.052Z,100057.96
2019-02-28T14:31:40.185Z,100059.68
2019-02-28T14:34:13.186Z,100072.22
2019-02-28T14:36:46.194Z,100068.27
2019-02-28T14:39:19.144Z,100063.22
2019-02-28T14:41:55.985Z,100070.52
2019-02-28T14:44:31.635Z,100066.62
2019-02-28T14:47:03.840Z,100064.68
2019-02-28T14:49:36.988Z,100063.94
2019-02-28T14:52:10.689Z,100059.62
2019-02-28T14:54:46.335Z,100062.93
2019-02-28T14:57:19.879Z,100068.74
2019-02-28T14:59:53.260Z,100063.98
2019-02-28T15:02:28.751Z,100064.30
2019-02-28T15:05:08.694Z,100062.63
2019-02-28T15:07:42.184Z,100063.81
2019-02-28T15:10:18.815Z,100061.88
2019-02-28T15:12:55.387Z,100064.25
2019-02-28T15:15:36.463Z,100069.92
2019-02-28T15:18:13.059Z,100073.96
2019-02-28T15:20:45.640Z,100079.78
2019-02-28T15:23:19.842Z,100072.20
2019-02-28T15:25:58.883Z,100080.30
2019-02-28T15:28:33.288Z,100080.87
2019-02-28T15:31:08.638Z,100081.58
2019-02-28T15:33:50.337Z,100078.41
2019-02-28T15:36:48.062Z,100080.84
2019-02-28T15:39:28.740Z,100085.86
2019-02-28T15:42:09.044Z,100081.37
2019-02-28T15:44:46.809Z,100088.54
2019-02-28T15:47:34.592Z,100097.06
2019-02-28T15:50:16.383Z,100096.73
2019-02-28T15:52:46.752Z,100101.70
2019-02-28T15:55:25.672Z,100101.08
2019-02-28T15:58:05.796Z,100109.13
2019-02-28T16:00:41.957Z,100115.92
2019-02-28T16:03:17.391Z,100121.12
2019-02-28T16:05:51.633Z,100127.97
2019-02-28T16:08:24.595Z,100132.91
2019-02-28T16:10:57.546Z,100139.47
2019-02-28T16:13:30.583Z,100143.08
2019-02-28T16:16:04.941Z,100151.16
2019-02-28T16:18:40.813Z,100153.98
2019-02-28T16:21:45.904Z,100158.41
2019-02-28T16:24:24.212Z,100161.16
2019-02-28T16:26:58.018Z,100168.30
2019-02-28T16:29:31.502Z,100176.89
2019-02-28T16:32:04.355Z,100173.43
2019-02-28T16:34:42.389Z,100182.06
2019-02-28T16:37:15.657Z,100177.98
2019-02-28T16:39:49.815Z,100177.98
2019-02-28T16:42:23.162Z,100190.23
2019-02-28T16:44:56.350Z,100185.04
2019-02-28T16:47:29.493Z,100198.79
2019-02-28T16:50:04.500Z,100200.43
2019-02-28T16:52:39.935Z,100193.41
2019-02-28T16:55:12.187Z,100196.44
2019-02-28T16:57:47.107Z,100214.70
2019-02-28T17:00:20.287Z,100214.70
2019-02-28T17:02:59.990Z,100216.92
2019-02-28T17:05:33.021Z,100215.44
2019-02-28T17:08:06.850Z,100218.73
2019-02-28T17:10:43.423Z,100225.74
2019-02-28T17:13:31.088Z,100225.47
2019-02-28T17:16:20.565Z,100232.41
2019-02-28T17:18:56.721Z,100225.50
2019-02-28T17:21:29.020Z,100228.86
2019-02-28T17:24:02.346Z,100237.99
2019-02-28T17:26:57.758Z,100238.09
2019-02-28T17:29:50.848Z,100239.88
2019-02-28T17:32:30.733Z,100237.09
2019-02-28T17:35:01.045Z,100246.16
2019-02-28T17:37:34.809Z,100246.37
2019-02-28T17:40:09.515Z,100255.88
2019-02-28T17:42:43.116Z,100258.57
2019-02-28T17:45:31.483Z,100256.33
2019-02-28T17:48:56.299Z,100254.86
2019-02-28T17:51:58.451Z,100256.53
2019-02-28T17:55:19.426Z,100259.12
2019-02-28T17:58:39.113Z,100257.70
2019-02-28T18:02:06.166Z,100265.23
2019-02-28T18:05:33.776Z,100268.58
2019-02-28T18:08:44.477Z,100266.58
2019-02-28T18:12:31.596Z,100268.65
2019-02-28T18:15:50.652Z,100283.14
2019-02-28T18:19:33.393Z,100279.13
2019-02-28T18:23:14.678Z,100285.40
2019-02-28T18:27:19.966Z,100287.30
2019-02-28T18:30:58.818Z,100292.34
2019-02-28T18:33:34.180Z,100295.55
2019-02-28T18:36:12.294Z,100304.67
2019-02-28T18:38:52.696Z,100302.03
2019-02-28T18:41:31.811Z,100299.53
2019-02-28T18:44:19.906Z,100298.05
2019-02-28T18:47:02.935Z,100302.09
2019-02-28T18:49:38.636Z,100300.09
2019-02-28T18:53:09.626Z,100302.54
2019-02-28T18:56:08.952Z,100304.36
2019-02-28T18:59:05.335Z,100311.66
2019-02-28T19:02:13.637Z,100317.39
2019-02-28T19:04:56.101Z,100317.20
2019-02-28T19:08:58.397Z,100325.73
2019-02-28T19:12:00.138Z,100324.44
2019-02-28T19:15:12.065Z,100332.14
2019-02-28T19:17:59.684Z,100328.79
2019-02-28T19:20:38.711Z,100336.68
2019-02-28T19:23:23.389Z,100340.14
2019-02-28T19:27:04.323Z,100346.31
2019-02-28T19:30:40.565Z,100352.01
2019-02-28T19:33:33.297Z,100346.39
2019-02-28T19:36:21.359Z,100357.02
2019-02-28T19:38:54.403Z,100352.44
2019-02-28T19:41:48.647Z,100354.77
2019-02-28T19:45:17.630Z,100365.06
2019-02-28T20:13:00.796Z,100353.45
2019-02-28T20:14:47.970Z,100364.64
2019-02-28T20:20:33.377Z,100369.63
2019-02-28T20:23:09.619Z,100369.95
2019-02-28T20:25:54.013Z,100366.11
2019-02-28T20:28:28.077Z,100373.47
2019-02-28T20:31:03.471Z,100376.35
2019-02-28T20:36:44.681Z,100382.52
2019-02-28T20:43:54.596Z,100384.44
2019-02-28T20:48:04.160Z,100379.40
2019-02-28T20:51:19.384Z,100380.89
2019-02-28T20:54:27.324Z,100372.45
2019-02-28T20:57:21.537Z,100374.99
2019-02-28T21:00:09.984Z,100382.29
2019-02-28T21:02:58.775Z,100379.11
2019-02-28T21:05:42.266Z,100388.51
2019-02-28T21:08:16.049Z,100386.28
2019-02-28T21:10:49.313Z,100389.36
2019-02-28T21:13:24.102Z,100394.59
2019-02-28T21:15:57.234Z,100391.39
2019-02-28T21:18:30.114Z,100394.77
2019-02-28T21:21:03.117Z,100393.79
2019-02-28T21:23:36.268Z,100387.89
2019-02-28T21:26:09.247Z,100393.65
2019-02-28T21:28:42.365Z,100385.06
2019-02-28T21:31:16.508Z,100385.85
2019-02-28T21:33:49.520Z,100388.01
2019-02-28T21:36:22.945Z,100390.88
2019-02-28T21:38:55.935Z,100386.02
2019-02-28T21:41:31.237Z,100382.36
2019-02-28T21:44:04.238Z,100383.98
2019-02-28T21:46:37.443Z,100375.66
2019-02-28T21:49:10.444Z,100378.80
2019-02-28T21:51:43.534Z,100379.86
2019-02-28T21:54:16.432Z,100377.58
2019-02-28T21:56:49.733Z,100375.67
2019-02-28T21:59:22.762Z,100378.48
2019-02-28T22:01:56.905Z,100382.13
2019-02-28T22:04:29.980Z,100377.57
2019-02-28T22:07:02.965Z,100378.50
2019-02-28T22:09:35.896Z,100384.99
2019-02-28T22:12:09.764Z,100378.48
2019-02-28T22:14:42.848Z,100379.25
2019-02-28T22:17:15.807Z,100383.81
2019-02-28T22:19:48.821Z,100384.80
2019-02-28T22:22:21.949Z,100383.86
2019-02-28T22:24:55.098Z,100393.56
2019-02-28T22:27:28.120Z,100391.78
2019-02-28T22:30:04.076Z,100393.44
2019-02-28T22:32:45.819Z,100399.19
2019-02-28T22:35:43.835Z,100395.69
2019-02-28T22:38:16.959Z,100390.36
2019-02-28T22:40:49.856Z,100395.69
2019-02-28T22:43:23.054Z,100386.41
2019-02-28T22:45:56.033Z,100390.80
2019-02-28T22:48:29.039Z,100392.91
2019-02-28T22:51:03.087Z,100392.79
2019-02-28T22:53:35.948Z,100393.95
2019-02-28T22:56:08.896Z,100399.38
2019-02-28T22:58:41.928Z,100394.44
2019-02-28T23:01:17.390Z,100395.98
2019-02-28T23:03:50.364Z,100402.54
2019-02-28T23:06:23.268Z,100401.36
2019-02-28T23:08:56.247Z,100404.28
2019-02-28T23:11:29.253Z,100403.97
2019-02-28T23:14:02.117Z,100402.77
2019-02-28T23:16:34.987Z,100396.75
2019-02-28T23:19:08.046Z,100400.23
2019-02-28T23:21:41.050Z,100402.56
2019-02-28T23:24:13.904Z,100403.98
2019-02-28T23:27:24.149Z,100403.20
2019-02-28T23:31:00.823Z,100405.09
2019-02-28T23:33:35.320Z,100403.66
2019-02-28T23:36:08.289Z,100391.30
2019-02-28T23:38:41.140Z,100385.97
2019-02-28T23:41:14.036Z,100385.02
2019-02-28T23:43:47.106Z,100386.70
2019-02-28T23:46:20.149Z,100388.34
2019-02-28T23:48:53.166Z,100390.76
2019-02-28T23:51:28.966Z,100388.09
2019-02-28T23:54:01.750Z,100389.36
2019-02-28T23:56:34.755Z,100394.16
2019-02-28T23:59:07.655Z,100398.47
